Time;durP1;ratioP1;P1;durP2;ratioP2;P2;SDS_P1;SDS_P2;PMS_P1;PMS_P2;Temp;Humidity;BMP_temperature;BMP_pressure;BME280_temperature;BME280_humidity;BME280_pressure;Samples;Min_cycle;Max_cycle;Signal;HPM_P1;HPM_P2
2022/07/23 00:00:47;;;;;;;6.18;3.15;;;16.80;99.90;;;;;;5109590;28;20130;-64
2022/07/23 00:03:12;;;;;;;5.68;3.33;;;16.80;99.90;;;;;;5109189;28;20036;-64
2022/07/23 00:05:39;;;;;;;5.28;3.38;;;16.80;99.90;;;;;;5110540;28;20040;-64
2022/07/23 00:08:06;;;;;;;5.65;3.63;;;16.70;99.90;;;;;;5106322;28;20042;-63
2022/07/23 00:10:32;;;;;;;6.95;3.40;;;16.70;99.90;;;;;;5107032;28;20047;-64
2022/07/23 00:12:57;;;;;;;5.32;3.72;;;16.60;99.90;;;;;;5109003;28;20052;-64
2022/07/23 00:15:23;;;;;;;7.13;3.60;;;16.60;99.90;;;;;;5110637;28;20110;-64
2022/07/23 00:17:48;;;;;;;5.45;3.50;;;16.50;99.90;;;;;;5107917;28;20151;-64
2022/07/23 00:20:14;;;;;;;6.93;3.95;;;16.50;99.90;;;;;;5095187;28;20040;-64
2022/07/23 00:22:51;;;;;;;6.47;3.60;;;16.50;99.90;;;;;;5099144;28;20060;-64
2022/07/23 00:25:17;;;;;;;6.60;3.58;;;16.50;99.90;;;;;;5095460;28;20048;-64
2022/07/23 00:27:44;;;;;;;5.63;3.67;;;16.50;99.90;;;;;;5107813;28;20040;-64
2022/07/23 00:30:10;;;;;;;7.18;3.78;;;16.40;99.90;;;;;;5109662;28;20538;-64
2022/07/23 00:32:53;;;;;;;8.23;3.72;;;16.40;99.90;;;;;;5108096;28;20032;-64
2022/07/23 00:35:23;;;;;;;5.70;3.78;;;16.30;99.90;;;;;;5108984;28;20048;-64
2022/07/23 00:37:48;;;;;;;5.55;3.60;;;16.30;99.90;;;;;;5108606;28;20058;-64
2022/07/23 00:40:15;;;;;;;5.15;3.40;;;16.30;99.90;;;;;;5099756;28;20499;-64
2022/07/23 00:42:41;;;;;;;6.78;3.53;;;16.20;99.90;;;;;;5108504;28;20401;-64
2022/07/23 00:45:07;;;;;;;5.38;3.30;;;16.20;99.90;;;;;;5109539;28;20085;-64
2022/07/23 00:47:33;;;;;;;7.60;3.67;;;16.20;99.90;;;;;;5108542;28;20395;-64
2022/07/23 00:49:59;;;;;;;5.72;3.70;;;16.10;99.90;;;;;;5109287;28;20131;-64
2022/07/23 00:52:25;;;;;;;6.03;3.45;;;16.10;99.90;;;;;;5106447;28;20028;-64
2022/07/23 00:54:51;;;;;;;7.50;3.60;;;16.10;99.90;;;;;;5109002;28;20039;-64
2022/07/23 00:57:17;;;;;;;5.68;3.30;;;16.10;99.90;;;;;;5109171;28;20502;-63
2022/07/23 00:59:43;;;;;;;5.80;3.60;;;16.00;99.90;;;;;;5110103;28;20093;-64
2022/07/23 01:02:08;;;;;;;5.30;3.30;;;16.00;99.90;;;;;;5108634;28;20424;-64
2022/07/23 01:04:34;;;;;;;5.00;3.30;;;16.00;99.90;;;;;;5102254;28;20044;-64
2022/07/23 01:07:01;;;;;;;7.13;3.75;;;16.00;99.90;;;;;;5103944;28;20115;-64
2022/07/23 01:09:26;;;;;;;5.50;3.65;;;15.90;99.90;;;;;;5109930;28;20547;-64
2022/07/23 01:11:55;;;;;;;7.28;3.63;;;15.90;99.90;;;;;;5105718;28;20127;-64
2022/07/23 01:14:21;;;;;;;6.50;3.70;;;15.90;99.90;;;;;;5100648;28;20125;-64
2022/07/23 01:16:49;;;;;;;6.38;3.42;;;15.80;99.90;;;;;;5101355;28;20039;-64
2022/07/23 01:19:16;;;;;;;7.53;3.70;;;15.80;99.90;;;;;;5107638;28;20044;-64
2022/07/23 01:21:44;;;;;;;4.78;3.50;;;15.80;99.90;;;;;;5109282;28;20127;-64
2022/07/23 01:24:11;;;;;;;5.72;3.28;;;15.80;99.90;;;;;;5105829;28;20052;-64
2022/07/23 01:26:38;;;;;;;6.45;3.28;;;15.70;99.90;;;;;;5107439;28;20048;-64
2022/07/23 01:29:04;;;;;;;7.47;3.40;;;15.70;99.90;;;;;;5107417;28;20051;-64
2022/07/23 01:31:31;;;;;;;5.28;3.13;;;15.70;99.90;;;;;;5105430;28;20036;-64
2022/07/23 01:33:56;;;;;;;5.60;3.00;;;15.60;99.90;;;;;;5098820;28;20035;-64
2022/07/23 01:36:22;;;;;;;5.72;3.30;;;15.60;99.90;;;;;;5108686;28;20202;-64
2022/07/23 01:38:48;;;;;;;5.38;2.80;;;15.60;99.90;;;;;;5107616;28;20043;-63
2022/07/23 01:41:14;;;;;;;4.80;2.97;;;15.60;99.90;;;;;;5101518;28;20090;-64
2022/07/23 01:43:39;;;;;;;5.35;3.05;;;15.50;99.90;;;;;;5101259;28;20050;-64
2022/07/23 01:46:05;;;;;;;6.22;3.10;;;15.50;99.90;;;;;;5102977;28;20048;-63
2022/07/23 01:48:31;;;;;;;5.22;3.20;;;15.50;99.90;;;;;;5106647;28;20857;-63
2022/07/23 01:50:56;;;;;;;5.47;3.42;;;15.50;99.90;;;;;;5106818;28;20455;-63
2022/07/23 01:53:22;;;;;;;7.93;3.83;;;15.50;99.90;;;;;;5110497;28;20212;-63
2022/07/23 01:55:47;;;;;;;5.65;3.38;;;15.40;99.90;;;;;;5112244;28;20055;-64
2022/07/23 01:58:13;;;;;;;5.30;3.50;;;15.40;99.90;;;;;;5111238;28;20366;-63
2022/07/23 02:00:39;;;;;;;5.50;3.08;;;15.40;99.90;;;;;;5112125;28;20492;-63
2022/07/23 02:03:04;;;;;;;5.40;2.78;;;15.40;99.90;;;;;;5097173;28;20155;-63
2022/07/23 02:05:31;;;;;;;6.38;3.25;;;15.40;99.90;;;;;;5105804;28;20123;-63
2022/07/23 02:07:58;;;;;;;4.78;2.92;;;15.30;99.90;;;;;;5112060;28;20050;-64
2022/07/23 02:10:24;;;;;;;5.88;3.38;;;15.30;99.90;;;;;;5111491;28;20040;-63
2022/07/23 02:12:50;;;;;;;5.18;3.15;;;15.30;99.90;;;;;;5109837;27;20489;-64
2022/07/23 02:15:16;;;;;;;5.07;3.33;;;15.30;99.90;;;;;;5109748;28;20035;-64
2022/07/23 02:17:41;;;;;;;4.72;2.80;;;15.30;99.90;;;;;;5112481;28;20481;-64
2022/07/23 02:20:08;;;;;;;4.68;2.80;;;15.30;99.90;;;;;;5112929;28;20881;-63
2022/07/23 02:22:34;;;;;;;4.68;2.92;;;15.30;99.90;;;;;;5111974;28;20055;-64
2022/07/23 02:24:59;;;;;;;4.53;2.80;;;15.30;99.90;;;;;;5110871;28;20066;-63
2022/07/23 02:27:25;;;;;;;4.60;2.80;;;15.30;99.90;;;;;;5109551;28;20071;-64
2022/07/23 02:29:51;;;;;;;4.00;2.47;;;15.40;99.90;;;;;;5110341;28;20039;-63
2022/07/23 02:32:16;;;;;;;5.78;2.90;;;15.30;99.90;;;;;;5110811;28;20036;-63
2022/07/23 02:34:42;;;;;;;4.90;2.80;;;15.40;99.90;;;;;;5112811;28;20039;-63
2022/07/23 02:37:08;;;;;;;6.38;2.92;;;15.40;99.90;;;;;;5110528;28;20041;-63
2022/07/23 02:39:34;;;;;;;5.93;3.00;;;15.30;99.90;;;;;;5093782;28;20052;-63
2022/07/23 02:42:00;;;;;;;4.50;2.45;;;15.20;99.90;;;;;;5098112;27;20043;-64
2022/07/23 02:44:26;;;;;;;5.80;2.90;;;15.20;99.90;;;;;;5110272;27;20046;-63
2022/07/23 02:46:52;;;;;;;4.95;3.28;;;15.20;99.90;;;;;;5107690;28;20402;-63
2022/07/23 02:49:17;;;;;;;4.95;2.83;;;15.20;99.90;;;;;;5112334;28;20069;-63
2022/07/23 02:51:43;;;;;;;6.00;2.90;;;15.10;99.90;;;;;;5111220;28;20378;-64
2022/07/23 02:54:08;;;;;;;4.75;2.80;;;15.10;99.90;;;;;;5111162;28;20043;-63
2022/07/23 02:56:34;;;;;;;5.72;2.75;;;15.00;99.90;;;;;;5112827;28;20115;-64
2022/07/23 02:58:59;;;;;;;5.95;2.90;;;15.10;99.90;;;;;;5111647;28;20075;-63
2022/07/23 03:01:25;;;;;;;7.28;2.92;;;15.10;99.90;;;;;;5110758;28;20482;-64
2022/07/23 03:03:51;;;;;;;5.80;3.22;;;15.00;99.90;;;;;;5111260;28;20375;-64
2022/07/23 03:06:17;;;;;;;5.55;2.95;;;14.90;99.90;;;;;;5111310;28;20043;-64
2022/07/23 03:08:42;;;;;;;4.65;3.15;;;14.90;99.90;;;;;;5099455;28;20036;-64
2022/07/23 03:11:10;;;;;;;5.40;2.92;;;14.90;99.90;;;;;;5112192;28;20042;-64
2022/07/23 03:13:40;;;;;;;6.18;3.33;;;14.90;99.90;;;;;;5112298;28;20118;-64
2022/07/23 03:16:06;;;;;;;4.50;3.00;;;14.80;99.90;;;;;;5103935;28;20048;-64
2022/07/23 03:18:33;;;;;;;3.88;2.80;;;14.80;99.90;;;;;;5103162;28;20104;-64
2022/07/23 03:20:58;;;;;;;5.13;2.90;;;14.80;99.90;;;;;;5111752;28;20035;-64
2022/07/23 03:23:24;;;;;;;5.03;2.92;;;14.80;99.90;;;;;;5110057;28;20057;-63
2022/07/23 03:25:50;;;;;;;7.15;3.10;;;14.70;99.90;;;;;;5109304;28;20539;-65
2022/07/23 03:28:16;;;;;;;9.02;3.63;;;14.70;99.90;;;;;;5100365;28;20071;-64
2022/07/23 03:30:43;;;;;;;6.50;3.10;;;14.70;99.90;;;;;;5108526;28;20047;-64
2022/07/23 03:33:09;;;;;;;5.72;3.15;;;14.70;99.90;;;;;;5109085;28;20179;-64
2022/07/23 03:35:34;;;;;;;6.47;3.40;;;14.60;99.90;;;;;;5110539;28;20119;-64
2022/07/23 03:38:00;;;;;;;5.65;2.80;;;14.60;99.90;;;;;;5111120;28;20203;-64
2022/07/23 03:40:25;;;;;;;5.65;2.97;;;14.60;99.90;;;;;;5111678;28;20046;-64
2022/07/23 03:42:51;;;;;;;5.18;2.90;;;14.60;99.90;;;;;;5108069;28;20071;-64
2022/07/23 03:45:17;;;;;;;4.15;2.80;;;14.60;99.90;;;;;;5100594;28;20027;-64
2022/07/23 03:47:44;;;;;;;6.32;3.00;;;14.50;99.90;;;;;;5108576;28;20383;-64
2022/07/23 03:50:10;;;;;;;5.40;3.17;;;14.60;99.90;;;;;;5110777;28;20061;-64
2022/07/23 03:52:35;;;;;;;5.70;3.15;;;14.60;99.90;;;;;;5109560;28;20443;-64
2022/07/23 03:55:02;;;;;;;5.38;3.20;;;14.50;99.90;;;;;;5108622;28;20067;-64
2022/07/23 03:57:27;;;;;;;5.90;3.60;;;14.50;99.90;;;;;;5109994;28;20040;-64
2022/07/23 03:59:53;;;;;;;5.88;3.90;;;14.50;99.90;;;;;;5091130;28;20055;-64
2022/07/23 04:02:18;;;;;;;5.85;3.38;;;14.60;99.90;;;;;;5099130;28;20035;-64
2022/07/23 04:04:44;;;;;;;5.25;3.35;;;14.50;99.90;;;;;;5111526;28;20044;-64
2022/07/23 04:07:09;;;;;;;6.40;3.10;;;14.50;99.90;;;;;;5109600;28;20111;-64
2022/07/23 04:09:35;;;;;;;5.38;3.00;;;14.50;99.90;;;;;;5103538;28;20082;-64
2022/07/23 04:12:01;;;;;;;5.38;3.00;;;14.60;99.90;;;;;;5096571;28;20362;-64
2022/07/23 04:14:26;;;;;;;4.57;2.70;;;14.60;99.90;;;;;;5099890;28;20119;-65
2022/07/23 04:16:52;;;;;;;5.20;3.00;;;14.60;99.90;;;;;;5109803;28;20682;-64
2022/07/23 04:19:17;;;;;;;5.68;2.78;;;14.60;99.90;;;;;;5110630;28;20062;-64
2022/07/23 04:21:43;;;;;;;7.07;2.20;;;14.60;99.90;;;;;;5105397;28;20040;-64
2022/07/23 04:24:08;;;;;;;4.45;2.25;;;14.70;99.90;;;;;;5098524;28;20109;-64
2022/07/23 04:26:34;;;;;;;3.53;1.95;;;14.80;99.90;;;;;;5092821;28;20372;-64
2022/07/23 04:29:00;;;;;;;4.88;2.20;;;14.90;99.90;;;;;;5121615;27;20052;-64
2022/07/23 04:31:25;;;;;;;3.30;1.80;;;15.00;99.90;;;;;;5096240;28;20035;-64
2022/07/23 04:33:51;;;;;;;4.43;1.95;;;15.00;99.90;;;;;;5111022;28;20065;-64
2022/07/23 04:36:16;;;;;;;3.78;1.80;;;15.00;99.90;;;;;;5109388;28;20482;-64
2022/07/23 04:38:42;;;;;;;4.90;1.90;;;15.00;99.90;;;;;;5109941;28;20040;-64
2022/07/23 04:41:07;;;;;;;4.25;1.90;;;15.00;99.90;;;;;;5110156;28;20047;-64
2022/07/23 04:43:33;;;;;;;4.45;2.00;;;15.00;99.90;;;;;;5110854;28;20116;-64
2022/07/23 04:45:58;;;;;;;4.05;2.00;;;15.20;99.90;;;;;;5109935;28;20419;-64
2022/07/23 04:48:24;;;;;;;3.97;1.90;;;15.20;99.90;;;;;;5110803;28;20372;-64
2022/07/23 04:50:50;;;;;;;4.45;2.25;;;15.30;99.90;;;;;;5108260;28;20051;-64
2022/07/23 04:53:15;;;;;;;4.18;1.88;;;15.40;99.90;;;;;;5109131;28;20042;-64
2022/07/23 04:55:41;;;;;;;4.53;2.35;;;15.50;99.90;;;;;;5110019;28;20071;-64
2022/07/23 04:58:07;;;;;;;6.18;2.63;;;15.50;99.90;;;;;;5101934;28;20051;-64
2022/07/23 05:00:32;;;;;;;6.18;2.80;;;15.60;99.90;;;;;;5105598;28;20040;-64
2022/07/23 05:02:58;;;;;;;6.32;2.72;;;15.60;99.90;;;;;;5109737;28;20051;-64
2022/07/23 05:05:23;;;;;;;4.57;2.58;;;15.70;99.90;;;;;;5095750;28;20047;-63
2022/07/23 05:07:49;;;;;;;4.25;2.65;;;15.80;99.90;;;;;;5098720;28;20065;-64
2022/07/23 05:10:14;;;;;;;5.72;3.00;;;15.80;99.90;;;;;;5109055;28;20039;-65
2022/07/23 05:12:40;;;;;;;5.40;2.75;;;15.90;99.90;;;;;;5109338;28;20044;-64
2022/07/23 05:15:06;;;;;;;7.13;2.88;;;16.00;99.90;;;;;;5109544;28;20040;-64
2022/07/23 05:17:31;;;;;;;5.40;3.30;;;16.20;99.90;;;;;;5108538;28;20128;-64
2022/07/23 05:19:57;;;;;;;6.93;3.97;;;16.20;99.90;;;;;;5108919;28;20078;-64
2022/07/23 05:22:22;;;;;;;8.45;4.05;;;16.30;99.90;;;;;;5109052;28;20065;-64
2022/07/23 05:24:48;;;;;;;8.15;4.50;;;16.40;99.90;;;;;;5108969;28;20137;-64
2022/07/23 05:27:14;;;;;;;7.05;4.25;;;16.60;99.90;;;;;;5106281;28;20139;-64
2022/07/23 05:29:39;;;;;;;6.55;4.10;;;16.60;99.90;;;;;;5109681;28;20077;-64
2022/07/23 05:32:05;;;;;;;7.53;4.05;;;16.80;99.90;;;;;;5108290;28;20473;-64
2022/07/23 05:34:30;;;;;;;9.57;3.67;;;16.80;99.90;;;;;;5108423;28;20920;-64
2022/07/23 05:36:56;;;;;;;6.25;3.70;;;17.00;99.90;;;;;;5118648;27;20525;-64
2022/07/23 05:39:21;;;;;;;10.00;4.80;;;17.00;99.90;;;;;;5103300;28;20043;-64
2022/07/23 05:41:47;;;;;;;6.40;3.85;;;17.20;99.90;;;;;;5095701;28;20195;-63
2022/07/23 05:44:13;;;;;;;7.60;3.90;;;17.30;99.90;;;;;;5092321;28;20197;-63
2022/07/23 05:46:38;;;;;;;6.05;3.70;;;17.50;99.90;;;;;;5104705;28;20047;-63
2022/07/23 05:49:04;;;;;;;5.93;3.33;;;17.60;99.90;;;;;;5096787;28;20047;-65
2022/07/23 05:51:29;;;;;;;5.15;3.15;;;17.80;99.90;;;;;;5103099;28;20165;-64
2022/07/23 05:53:55;;;;;;;6.28;3.15;;;17.90;99.90;;;;;;5105242;28;20138;-63
2022/07/23 05:56:20;;;;;;;4.93;2.60;;;18.00;99.90;;;;;;5107553;28;20040;-64
2022/07/23 05:58:46;;;;;;;7.03;2.47;;;18.00;99.90;;;;;;5099351;28;20040;-64
2022/07/23 06:01:12;;;;;;;4.25;2.40;;;18.20;99.90;;;;;;5106327;28;20036;-64
2022/07/23 06:03:38;;;;;;;7.40;2.70;;;18.20;99.90;;;;;;5109077;28;20048;-64
2022/07/23 06:06:04;;;;;;;6.53;2.83;;;18.30;99.90;;;;;;5107832;28;20036;-64
2022/07/23 06:08:30;;;;;;;4.63;2.53;;;18.20;99.90;;;;;;5108844;28;20464;-63
2022/07/23 06:10:56;;;;;;;5.68;2.72;;;18.40;99.90;;;;;;5108540;28;20115;-64
2022/07/23 06:13:21;;;;;;;6.43;2.30;;;18.50;99.90;;;;;;5108845;28;20032;-63
2022/07/23 06:15:47;;;;;;;4.78;2.20;;;18.60;99.90;;;;;;5101524;28;20040;-64
2022/07/23 06:18:12;;;;;;;5.22;2.50;;;18.70;99.90;;;;;;5124309;28;20427;-64
2022/07/23 06:20:38;;;;;;;6.97;2.20;;;18.70;99.90;;;;;;5103319;28;20331;-64
2022/07/23 06:23:04;;;;;;;5.78;2.10;;;18.80;99.90;;;;;;5098477;28;20069;-64
2022/07/23 06:25:29;;;;;;;4.22;1.85;;;18.80;99.90;;;;;;5109324;28;20127;-64
2022/07/23 06:27:55;;;;;;;5.63;2.22;;;18.80;99.90;;;;;;5107758;28;20035;-64
2022/07/23 06:30:21;;;;;;;5.13;1.90;;;18.90;99.90;;;;;;5107959;28;20063;-64
2022/07/23 06:32:48;;;;;;;5.05;1.90;;;19.10;99.90;;;;;;5108290;28;20040;-64
2022/07/23 06:35:14;;;;;;;4.25;1.85;;;19.20;99.90;;;;;;5109793;28;20110;-64
2022/07/23 06:37:39;;;;;;;4.75;1.52;;;19.20;99.90;;;;;;5107909;28;20054;-64
2022/07/23 06:40:05;;;;;;;4.25;1.83;;;19.40;99.90;;;;;;5106406;28;20466;-64
2022/07/23 06:42:31;;;;;;;5.05;1.60;;;19.40;99.90;;;;;;5097868;28;20770;-63
2022/07/23 06:44:57;;;;;;;4.50;1.60;;;19.40;99.90;;;;;;5112403;28;20191;-64
2022/07/23 06:47:22;;;;;;;4.30;1.45;;;19.50;99.90;;;;;;5112997;28;20227;-64
2022/07/23 06:49:48;;;;;;;4.30;1.60;;;19.50;99.90;;;;;;5111916;28;20071;-64
2022/07/23 06:52:14;;;;;;;4.07;1.50;;;19.60;99.90;;;;;;5123773;27;20384;-64
2022/07/23 06:54:39;;;;;;;4.15;1.30;;;19.70;99.90;;;;;;5118151;27;20366;-65
2022/07/23 06:57:05;;;;;;;4.97;1.48;;;19.80;99.90;;;;;;5110100;28;20051;-64
2022/07/23 06:59:31;;;;;;;5.03;1.45;;;20.00;99.90;;;;;;5108058;28;20111;-64
2022/07/23 07:01:58;;;;;;;3.13;1.50;;;19.90;99.90;;;;;;5110492;28;20036;-67
2022/07/23 07:04:23;;;;;;;4.00;1.40;;;19.80;99.90;;;;;;5111628;28;20043;-67
2022/07/23 07:06:49;;;;;;;3.88;1.50;;;19.80;99.90;;;;;;5112449;27;20043;-68
2022/07/23 07:09:14;;;;;;;4.38;1.40;;;19.90;99.90;;;;;;5112817;28;20123;-70
2022/07/23 07:11:40;;;;;;;4.38;1.77;;;19.90;99.90;;;;;;5111876;28;20089;-70
2022/07/23 07:14:06;;;;;;;3.63;1.70;;;19.90;99.90;;;;;;5110579;28;20039;-68
2022/07/23 07:16:32;;;;;;;3.58;1.30;;;19.90;99.90;;;;;;5111314;27;20119;-67
2022/07/23 07:18:57;;;;;;;5.45;1.70;;;19.90;99.90;;;;;;5112280;27;20111;-70
2022/07/23 07:21:23;;;;;;;4.13;1.55;;;19.90;99.90;;;;;;5112856;27;20046;-70
2022/07/23 07:23:49;;;;;;;3.22;1.20;;;19.90;99.90;;;;;;5111022;27;20052;-70
2022/07/23 07:26:14;;;;;;;2.65;1.20;;;20.10;99.90;;;;;;5110548;28;20126;-67
2022/07/23 07:28:40;;;;;;;2.38;1.00;;;20.10;99.90;;;;;;5110836;27;20071;-67
2022/07/23 07:31:06;;;;;;;2.05;1.02;;;20.10;99.90;;;;;;5109559;28;20501;-67
2022/07/23 07:33:31;;;;;;;2.67;1.35;;;20.20;99.90;;;;;;5112001;28;20118;-68
2022/07/23 07:35:57;;;;;;;3.22;1.00;;;20.10;99.90;;;;;;5111488;28;20063;-68
2022/07/23 07:38:22;;;;;;;2.03;0.82;;;20.40;99.90;;;;;;5111299;28;20031;-68
2022/07/23 07:40:48;;;;;;;4.47;1.20;;;20.40;99.90;;;;;;5111811;28;20036;-68
2022/07/23 07:43:13;;;;;;;3.20;1.15;;;20.60;99.90;;;;;;5110938;28;20036;-69
2022/07/23 07:45:39;;;;;;;3.78;1.58;;;20.70;99.90;;;;;;5105562;28;20097;-68
2022/07/23 07:48:05;;;;;;;3.30;1.60;;;20.70;99.90;;;;;;5103144;28;20035;-70
2022/07/23 07:50:31;;;;;;;3.42;1.20;;;20.70;99.90;;;;;;5108330;28;20061;-68
2022/07/23 07:52:56;;;;;;;2.78;1.33;;;20.90;99.90;;;;;;5094793;28;20154;-67
2022/07/23 07:55:22;;;;;;;4.78;1.48;;;21.10;99.90;;;;;;5105429;28;20031;-67
2022/07/23 07:57:47;;;;;;;4.47;1.48;;;21.20;99.90;;;;;;5103017;28;20502;-68
2022/07/23 08:00:13;;;;;;;4.57;1.52;;;21.20;99.90;;;;;;5106253;28;20044;-67
2022/07/23 08:02:51;;;;;;;4.95;1.27;;;21.20;99.90;;;;;;5090541;28;20044;-70
2022/07/23 08:05:24;;;;;;;2.92;1.40;;;21.30;99.90;;;;;;5093349;28;20458;-69
2022/07/23 08:07:50;;;;;;;3.53;1.10;;;21.20;99.90;;;;;;5106346;27;20517;-68
2022/07/23 08:10:16;;;;;;;3.65;1.50;;;21.20;99.90;;;;;;5107847;28;20036;-69
2022/07/23 08:12:50;;;;;;;3.30;1.35;;;20.90;99.90;;;;;;5109156;27;20456;-68
2022/07/23 08:15:19;;;;;;;1.52;0.90;;;20.60;99.90;;;;;;5107527;28;20051;-67
2022/07/23 08:17:46;;;;;;;3.03;1.00;;;20.40;99.90;;;;;;5101755;28;20044;-67
2022/07/23 08:20:13;;;;;;;4.45;1.10;;;20.60;99.90;;;;;;5109140;28;20074;-67
2022/07/23 08:23:02;;;;;;;3.67;1.00;;;20.70;99.90;;;;;;5109149;28;20533;-67
2022/07/23 08:25:34;;;;;;;3.28;0.85;;;21.10;99.90;;;;;;5108488;28;20390;-68
2022/07/23 08:28:00;;;;;;;2.58;0.88;;;21.40;99.90;;;;;;5105542;28;20089;-67
2022/07/23 08:30:27;;;;;;;3.30;1.35;;;21.60;99.90;;;;;;5109445;28;20051;-67
2022/07/23 08:33:00;;;;;;;1.77;0.80;;;21.40;99.50;;;;;;5108480;27;20177;-67
2022/07/23 08:35:30;;;;;;;2.65;0.98;;;21.20;99.40;;;;;;5103953;27;20513;-67
2022/07/23 08:37:57;;;;;;;2.38;1.10;;;21.00;99.40;;;;;;5108777;28;20043;-67
2022/07/23 08:40:25;;;;;;;1.10;0.70;;;20.90;99.30;;;;;;5109535;28;20054;-67
2022/07/23 08:42:51;;;;;;;2.38;0.60;;;21.00;99.30;;;;;;5107599;28;20046;-67
2022/07/23 08:45:20;;;;;;;3.65;1.10;;;21.10;99.20;;;;;;5109895;28;20059;-67
2022/07/23 08:48:00;;;;;;;2.10;0.90;;;21.00;99.10;;;;;;5108740;28;20127;-67
2022/07/23 08:50:26;;;;;;;3.38;1.05;;;21.00;99.40;;;;;;5108521;28;20177;-67
2022/07/23 08:52:53;;;;;;;4.15;1.40;;;20.90;99.70;;;;;;5108699;28;20044;-67
2022/07/23 08:55:21;;;;;;;4.20;1.10;;;20.70;99.60;;;;;;5108564;28;20036;-67
2022/07/23 08:57:50;;;;;;;3.15;1.10;;;20.60;99.70;;;;;;5108417;28;20472;-66
2022/07/23 09:00:17;;;;;;;3.45;1.10;;;20.90;99.60;;;;;;5109444;28;20044;-67
2022/07/23 09:02:44;;;;;;;4.32;0.88;;;21.30;99.00;;;;;;5107619;28;20044;-67
2022/07/23 09:05:11;;;;;;;2.15;0.80;;;21.60;98.80;;;;;;5105985;28;20063;-67
2022/07/23 09:07:57;;;;;;;1.52;0.77;;;21.60;98.20;;;;;;5105145;28;20414;-67
2022/07/23 09:10:23;;;;;;;1.95;0.80;;;21.60;97.90;;;;;;5107118;28;20043;-67
2022/07/23 09:12:48;;;;;;;1.10;0.73;;;21.50;97.60;;;;;;5102969;28;20036;-64
2022/07/23 09:15:14;;;;;;;1.75;0.80;;;21.50;97.70;;;;;;5106980;28;20335;-64
2022/07/23 09:17:42;;;;;;;1.60;0.80;;;21.60;97.70;;;;;;5105860;27;20195;-64
2022/07/23 09:20:14;;;;;;;1.17;0.57;;;21.60;97.20;;;;;;5109003;28;20075;-64
2022/07/23 09:22:49;;;;;;;1.55;0.60;;;21.70;96.60;;;;;;5106895;28;20094;-63
2022/07/23 09:25:16;;;;;;;1.02;0.60;;;21.90;96.60;;;;;;5104052;28;20047;-63
2022/07/23 09:27:52;;;;;;;1.67;0.70;;;22.10;95.70;;;;;;5105616;28;20047;-63
2022/07/23 09:30:18;;;;;;;3.63;0.85;;;22.30;94.90;;;;;;5102131;28;20143;-63
2022/07/23 09:32:43;;;;;;;2.58;0.90;;;22.50;94.00;;;;;;5104882;28;20122;-63
2022/07/23 09:35:09;;;;;;;0.98;0.75;;;22.80;93.90;;;;;;5105669;28;20119;-63
2022/07/23 09:37:35;;;;;;;1.13;0.70;;;22.90;93.60;;;;;;5105117;28;20268;-64
2022/07/23 09:40:11;;;;;;;2.55;1.02;;;23.00;93.00;;;;;;5107427;28;20214;-64
2022/07/23 09:42:37;;;;;;;1.85;0.70;;;22.80;92.80;;;;;;5104477;28;20040;-64
2022/07/23 09:45:03;;;;;;;2.90;0.80;;;22.80;92.90;;;;;;5104322;28;20336;-64
2022/07/23 09:47:31;;;;;;;4.25;1.00;;;22.60;92.70;;;;;;5101395;28;20044;-64
2022/07/23 09:50:06;;;;;;;1.23;0.73;;;22.70;93.00;;;;;;5107678;28;20071;-67
2022/07/23 09:52:52;;;;;;;1.95;0.80;;;22.70;93.20;;;;;;5105719;28;20822;-67
2022/07/23 09:55:18;;;;;;;2.58;1.00;;;22.70;92.60;;;;;;5107823;28;20044;-66
2022/07/23 09:57:46;;;;;;;2.92;1.00;;;22.90;92.60;;;;;;5106002;28;20440;-66
2022/07/23 10:00:12;;;;;;;2.67;1.17;;;23.10;92.30;;;;;;5107751;28;20050;-66
2022/07/23 10:02:40;;;;;;;2.53;1.10;;;23.00;91.60;;;;;;5104461;28;20040;-66
2022/07/23 10:05:06;;;;;;;2.95;1.10;;;23.00;91.10;;;;;;5107671;28;20048;-64
2022/07/23 10:07:36;;;;;;;2.85;1.15;;;22.90;90.70;;;;;;5106144;28;20040;-64
2022/07/23 10:10:05;;;;;;;3.40;0.90;;;23.10;90.90;;;;;;5109401;28;20043;-64
2022/07/23 10:15:06;;;;;;;2.83;0.85;;;23.40;90.80;;;;;;5112182;28;20181;-65
2022/07/23 10:17:32;;;;;;;3.20;1.20;;;23.10;90.50;;;;;;5110479;28;20058;-65
2022/07/23 10:19:58;;;;;;;2.95;1.00;;;22.80;90.50;;;;;;5108487;28;20633;-68
2022/07/23 10:22:27;;;;;;;3.78;1.30;;;22.90;91.30;;;;;;5111415;28;20055;-68
2022/07/23 10:25:03;;;;;;;1.52;0.90;;;23.00;90.80;;;;;;5111030;28;20085;-68
2022/07/23 10:27:48;;;;;;;3.85;1.20;;;23.10;90.50;;;;;;5104859;28;20057;-70
2022/07/23 10:30:34;;;;;;;2.55;1.10;;;23.20;90.10;;;;;;5106945;28;20182;-68
2022/07/23 10:33:27;;;;;;;2.60;1.17;;;23.30;90.50;;;;;;5111430;28;20398;-67
2022/07/23 10:36:27;;;;;;;2.50;1.10;;;23.30;90.40;;;;;;5107940;28;20051;-68
2022/07/23 10:38:58;;;;;;;1.70;1.00;;;23.60;90.40;;;;;;5124986;27;20128;-68
2022/07/23 10:41:36;;;;;;;3.42;1.25;;;23.60;89.80;;;;;;5111260;28;20047;-68
2022/07/23 10:44:12;;;;;;;3.45;1.30;;;23.50;90.00;;;;;;5105679;28;20035;-68
2022/07/23 10:47:20;;;;;;;4.43;1.42;;;23.30;90.50;;;;;;5108096;28;20143;-70
2022/07/23 10:49:46;;;;;;;3.03;1.35;;;23.60;90.30;;;;;;5109468;28;20047;-70
2022/07/23 10:52:14;;;;;;;3.35;1.58;;;23.90;89.90;;;;;;5110290;28;20039;-68
2022/07/23 10:54:43;;;;;;;3.00;1.30;;;23.90;88.90;;;;;;5110035;28;20439;-68
2022/07/23 10:57:11;;;;;;;2.67;1.35;;;24.10;88.70;;;;;;5092393;28;20048;-68
2022/07/23 11:00:05;;;;;;;2.47;1.27;;;24.30;86.70;;;;;;5111567;28;20032;-68
2022/07/23 11:02:32;;;;;;;2.88;1.10;;;24.20;86.90;;;;;;5109625;28;20043;-69
2022/07/23 11:05:06;;;;;;;2.38;1.35;;;24.10;87.60;;;;;;5111446;28;20154;-68
2022/07/23 11:07:31;;;;;;;2.60;1.30;;;23.90;87.00;;;;;;5111009;28;20104;-68
2022/07/23 11:09:57;;;;;;;2.97;1.30;;;23.90;87.00;;;;;;5111162;28;20423;-67
2022/07/23 11:12:23;;;;;;;2.28;1.40;;;24.10;86.60;;;;;;5110951;28;20038;-67
2022/07/23 11:15:12;;;;;;;2.65;1.40;;;24.30;86.60;;;;;;5108859;28;20111;-67
2022/07/23 11:17:51;;;;;;;2.88;1.60;;;24.40;86.20;;;;;;5108964;28;20347;-68
2022/07/23 11:20:19;;;;;;;3.03;1.55;;;24.60;85.20;;;;;;5110849;28;20085;-69
2022/07/23 11:22:44;;;;;;;3.17;1.50;;;24.70;84.40;;;;;;5107709;28;20108;-68
2022/07/23 11:25:28;;;;;;;3.35;1.50;;;24.80;84.00;;;;;;5110035;28;20412;-68
2022/07/23 11:28:07;;;;;;;2.78;1.30;;;24.80;83.30;;;;;;5107080;28;20433;-68
2022/07/23 11:30:33;;;;;;;2.70;1.20;;;24.90;83.30;;;;;;5101873;28;20051;-68
2022/07/23 11:33:07;;;;;;;4.90;1.48;;;24.80;83.90;;;;;;5109928;28;20040;-68
2022/07/23 11:35:35;;;;;;;3.58;1.30;;;25.00;83.10;;;;;;5103915;28;20142;-68
2022/07/23 11:38:13;;;;;;;3.08;1.73;;;25.00;82.80;;;;;;5105712;28;20047;-68
2022/07/23 11:40:39;;;;;;;2.47;1.20;;;24.80;81.40;;;;;;5105592;28;20044;-68
2022/07/23 11:43:07;;;;;;;3.22;1.20;;;24.70;82.10;;;;;;5107483;28;20039;-69
2022/07/23 11:45:42;;;;;;;2.42;1.10;;;24.50;83.20;;;;;;5107719;28;20176;-69
2022/07/23 11:48:15;;;;;;;3.50;1.38;;;24.60;83.40;;;;;;5102473;28;20051;-69
2022/07/23 11:50:41;;;;;;;3.28;1.40;;;24.90;84.00;;;;;;5108468;28;20347;-68
2022/07/23 11:53:06;;;;;;;2.03;1.30;;;25.00;82.80;;;;;;5105552;28;20068;-68
2022/07/23 11:55:32;;;;;;;4.25;1.48;;;25.10;82.10;;;;;;5109963;28;20127;-69
2022/07/23 11:57:58;;;;;;;3.40;1.40;;;25.10;82.30;;;;;;5106506;28;20439;-67
2022/07/23 12:00:26;;;;;;;2.95;1.38;;;24.90;81.80;;;;;;5108980;28;20035;-68
2022/07/23 12:02:55;;;;;;;3.15;1.33;;;24.80;81.60;;;;;;5102325;28;20789;-67
2022/07/23 12:05:26;;;;;;;2.80;1.50;;;24.60;82.00;;;;;;5109119;28;20180;-67
2022/07/23 12:07:54;;;;;;;2.42;1.40;;;24.50;81.90;;;;;;5107627;28;20071;-70
2022/07/23 12:10:23;;;;;;;2.70;1.20;;;24.40;82.70;;;;;;5099175;28;20031;-67
2022/07/23 12:12:52;;;;;;;2.90;1.30;;;24.60;84.00;;;;;;5110879;28;20036;-67
2022/07/23 12:15:21;;;;;;;1.88;1.20;;;24.80;84.20;;;;;;5105844;28;20040;-66
2022/07/23 12:17:47;;;;;;;2.58;1.20;;;24.50;83.10;;;;;;5109397;28;20043;-67
2022/07/23 12:20:19;;;;;;;3.03;1.17;;;24.40;83.30;;;;;;5109678;28;20133;-66
2022/07/23 12:22:48;;;;;;;2.42;1.30;;;24.30;84.30;;;;;;5102335;28;20040;-66
2022/07/23 12:25:22;;;;;;;2.22;1.10;;;24.30;85.10;;;;;;5107091;28;20502;-67
2022/07/23 12:28:03;;;;;;;2.83;1.35;;;24.50;84.80;;;;;;5107454;28;20043;-68
2022/07/23 12:30:41;;;;;;;3.38;1.35;;;24.70;84.50;;;;;;5109306;28;20124;-67
2022/07/23 12:33:08;;;;;;;3.53;1.40;;;24.70;83.60;;;;;;5106457;28;20474;-67
2022/07/23 12:35:37;;;;;;;2.80;1.50;;;25.00;82.60;;;;;;5105283;28;20046;-68
2022/07/23 12:38:14;;;;;;;3.38;1.33;;;25.10;81.90;;;;;;5105096;28;20042;-67
2022/07/23 12:40:54;;;;;;;2.97;1.40;;;25.20;82.40;;;;;;5103434;28;20108;-68
2022/07/23 12:43:29;;;;;;;3.38;1.40;;;25.30;82.90;;;;;;5105621;28;20136;-68
2022/07/23 12:46:10;;;;;;;3.75;1.55;;;25.30;81.70;;;;;;5104814;28;20150;-68
2022/07/23 12:48:51;;;;;;;2.45;1.40;;;25.20;81.80;;;;;;5104857;28;20035;-67
2022/07/23 12:51:22;;;;;;;2.80;1.30;;;25.30;81.60;;;;;;5107285;28;20061;-68
2022/07/23 12:53:51;;;;;;;2.67;1.27;;;25.30;81.40;;;;;;5108037;28;20070;-68